Time;durP1;ratioP1;P1;durP2;ratioP2;P2;SDS_P1;SDS_P2;PMS_P1;PMS_P2;Temp;Humidity;BMP_temperature;BMP_pressure;BME280_temperature;BME280_humidity;BME280_pressure;Samples;Min_cycle;Max_cycle;Signal;HPM_P1;HPM_P2
2022/06/09 00:01:24;;;;;;;1.17;1.07;;;;;;;;;;5093567;28;20401;-68
2022/06/09 00:04:11;;;;;;;1.80;1.37;;;;;;;;;;5093530;28;20400;-67
2022/06/09 00:06:39;;;;;;;1.20;1.20;;;;;;;;;;5074923;28;20421;-68
2022/06/09 00:09:06;;;;;;;1.60;1.50;;;;;;;;;;5093510;28;20401;-67
2022/06/09 00:11:33;;;;;;;1.20;1.20;;;;;;;;;;5093332;28;20405;-68
2022/06/09 00:13:59;;;;;;;1.70;1.00;;;;;;;;;;5092152;28;20444;-67
2022/06/09 00:16:26;;;;;;;1.30;1.30;;;;;;;;;;5093379;28;20963;-67
2022/06/09 00:18:52;;;;;;;5.20;1.67;;;;;;;;;;5093542;28;20401;-67
2022/06/09 00:21:18;;;;;;;1.40;1.40;;;;;;;;;;5093339;28;20415;-67
2022/06/09 00:23:43;;;;;;;1.00;1.00;;;;;;;;;;5093552;28;20401;-67
2022/06/09 00:26:09;;;;;;;1.10;1.10;;;;;;;;;;5093239;28;20964;-67
2022/06/09 00:28:35;;;;;;;1.70;1.70;;;;;;;;;;5093119;28;20457;-67
2022/06/09 00:31:02;;;;;;;1.40;1.40;;;;;;;;;;5093217;28;20404;-67
2022/06/09 00:33:27;;;;;;;1.30;1.30;;;;;;;;;;5093244;28;20483;-68
2022/06/09 00:35:53;;;;;;;1.50;1.50;;;;;;;;;;5094855;28;20901;-67
2022/06/09 00:38:19;;;;;;;1.37;1.03;;;;;;;;;;5097044;28;20410;-68
2022/06/09 00:40:45;;;;;;;1.20;1.20;;;;;;;;;;5097030;28;20390;-67
2022/06/09 00:43:11;;;;;;;1.60;1.50;;;;;;;;;;5096931;28;20491;-68
2022/06/09 00:45:39;;;;;;;2.30;2.07;;;;;;;;;;5097214;28;20397;-68
2022/06/09 00:48:21;;;;;;;2.47;1.60;;;;;;;;;;5097138;28;20423;-68
2022/06/09 00:50:51;;;;;;;1.70;1.70;;;;;;;;;;5096803;28;20465;-68
2022/06/09 00:53:23;;;;;;;2.30;2.10;;;;;;;;;;5096791;28;20879;-68
2022/06/09 00:55:49;;;;;;;1.40;1.40;;;;;;;;;;5096737;28;20470;-68
2022/06/09 00:58:17;;;;;;;4.83;1.77;;;;;;;;;;5096669;28;20446;-68
2022/06/09 01:00:56;;;;;;;1.67;1.67;;;;;;;;;;5096815;28;20405;-66
2022/06/09 01:03:23;;;;;;;2.20;2.20;;;;;;;;;;5096588;28;20390;-68
2022/06/09 01:05:51;;;;;;;2.57;2.47;;;;;;;;;;5096560;28;20834;-67
2022/06/09 01:08:17;;;;;;;2.13;2.03;;;;;;;;;;5096489;28;20404;-68
2022/06/09 01:10:43;;;;;;;2.80;2.23;;;;;;;;;;5096374;28;20405;-67
2022/06/09 01:13:09;;;;;;;3.97;2.40;;;;;;;;;;5096738;28;20397;-67
2022/06/09 01:15:44;;;;;;;2.90;2.70;;;;;;;;;;5096483;28;20454;-67
2022/06/09 01:18:19;;;;;;;2.20;2.20;;;;;;;;;;5096370;28;20938;-66
2022/06/09 01:21:01;;;;;;;2.70;2.60;;;;;;;;;;5096940;28;20457;-66
2022/06/09 01:23:42;;;;;;;2.20;2.10;;;;;;;;;;5096451;28;20463;-68
2022/06/09 01:26:26;;;;;;;2.30;2.10;;;;;;;;;;5096225;28;20779;-67
2022/06/09 01:29:01;;;;;;;2.03;1.93;;;;;;;;;;5095848;28;20404;-67
2022/06/09 01:31:31;;;;;;;2.37;2.20;;;;;;;;;;5096021;28;20895;-66
2022/06/09 01:34:03;;;;;;;4.40;2.10;;;;;;;;;;5095949;28;20883;-67
2022/06/09 01:36:33;;;;;;;2.17;2.17;;;;;;;;;;5095921;28;20975;-67
2022/06/09 01:39:03;;;;;;;2.70;2.50;;;;;;;;;;5095914;28;20432;-66
2022/06/09 01:41:29;;;;;;;2.97;2.17;;;;;;;;;;5095946;28;20445;-68
2022/06/09 01:43:56;;;;;;;2.63;2.20;;;;;;;;;;5095834;28;20955;-68
2022/06/09 01:46:29;;;;;;;2.33;2.23;;;;;;;;;;5095686;28;20413;-68
2022/06/09 01:48:57;;;;;;;2.23;2.13;;;;;;;;;;5095281;28;20755;-67
2022/06/09 01:51:24;;;;;;;5.23;2.50;;;;;;;;;;5095605;28;20423;-67
2022/06/09 01:54:07;;;;;;;2.20;2.20;;;;;;;;;;5095554;28;20489;-66
2022/06/09 01:56:36;;;;;;;2.50;2.40;;;;;;;;;;5095436;28;20525;-67
2022/06/09 01:59:12;;;;;;;2.10;2.00;;;;;;;;;;5095611;28;20479;-67
2022/06/09 02:01:43;;;;;;;2.10;2.00;;;;;;;;;;5095462;28;20396;-68
2022/06/09 02:04:14;;;;;;;2.40;2.20;;;;;;;;;;5095366;28;20413;-67
2022/06/09 02:06:41;;;;;;;2.07;1.97;;;;;;;;;;5095452;28;20911;-67
2022/06/09 02:09:07;;;;;;;2.47;2.37;;;;;;;;;;5095322;28;20758;-67
2022/06/09 02:11:33;;;;;;;2.83;2.53;;;;;;;;;;5095195;28;20500;-68
2022/06/09 02:14:00;;;;;;;2.80;2.63;;;;;;;;;;5095208;28;20463;-68
2022/06/09 02:16:26;;;;;;;2.03;1.97;;;;;;;;;;5095108;28;20556;-67
2022/06/09 02:18:54;;;;;;;4.73;2.40;;;;;;;;;;5095135;28;20834;-68
2022/06/09 02:21:21;;;;;;;2.27;2.07;;;;;;;;;;5095059;28;20891;-66
2022/06/09 02:23:48;;;;;;;2.70;2.60;;;;;;;;;;5095045;28;20405;-67
2022/06/09 02:26:14;;;;;;;2.10;2.00;;;;;;;;;;5094943;28;20428;-66
2022/06/09 02:28:40;;;;;;;2.13;2.13;;;;;;;;;;5094807;28;20396;-67
2022/06/09 02:31:06;;;;;;;2.93;2.70;;;;;;;;;;5094922;28;20914;-67
2022/06/09 02:33:33;;;;;;;6.63;3.20;;;;;;;;;;5094852;28;20859;-66
2022/06/09 02:35:59;;;;;;;2.67;2.57;;;;;;;;;;5094726;28;20459;-67
2022/06/09 02:38:25;;;;;;;7.63;2.80;;;;;;;;;;5094773;28;20412;-66
2022/06/09 02:40:54;;;;;;;2.80;2.80;;;;;;;;;;5094706;28;20486;-67
2022/06/09 02:43:20;;;;;;;4.63;2.90;;;;;;;;;;5094694;28;20405;-67
2022/06/09 02:45:46;;;;;;;4.47;3.03;;;;;;;;;;5094634;28;20399;-66
2022/06/09 02:48:12;;;;;;;3.90;3.70;;;;;;;;;;5094786;28;20514;-68
2022/06/09 02:50:38;;;;;;;3.33;3.23;;;;;;;;;;5094544;28;20874;-67
2022/06/09 02:53:04;;;;;;;3.20;3.00;;;;;;;;;;5094495;28;20415;-66
2022/06/09 02:55:30;;;;;;;3.77;3.23;;;;;;;;;;5094409;28;20470;-66
2022/06/09 02:57:56;;;;;;;7.07;3.90;;;;;;;;;;5094398;28;20886;-67
2022/06/09 03:00:23;;;;;;;4.00;3.70;;;;;;;;;;5093564;28;20446;-67
2022/06/09 03:02:56;;;;;;;4.43;4.13;;;;;;;;;;5094342;28;20461;-67
2022/06/09 03:05:23;;;;;;;3.50;3.30;;;;;;;;;;5094288;28;20393;-67
2022/06/09 03:07:49;;;;;;;3.53;3.53;;;;;;;;;;5094263;28;20412;-68
2022/06/09 03:10:15;;;;;;;3.40;3.20;;;;;;;;;;5094250;28;20403;-67
2022/06/09 03:12:41;;;;;;;3.43;2.80;;;;;;;;;;5094205;28;20436;-67
2022/06/09 03:15:08;;;;;;;2.93;2.93;;;;;;;;;;5094186;28;20449;-67
2022/06/09 03:17:34;;;;;;;3.90;3.47;;;;;;;;;;5092783;28;20476;-67
2022/06/09 03:20:00;;;;;;;3.03;2.93;;;;;;;;;;5093958;28;21008;-67
2022/06/09 03:22:26;;;;;;;3.73;3.63;;;;;;;;;;5093999;28;20461;-68
2022/06/09 03:24:52;;;;;;;5.23;3.47;;;;;;;;;;5094248;28;20404;-68
2022/06/09 03:27:18;;;;;;;4.07;3.77;;;;;;;;;;5093975;28;20411;-67
2022/06/09 03:29:44;;;;;;;3.77;3.33;;;;;;;;;;5093771;28;20502;-67
2022/06/09 03:32:10;;;;;;;4.33;4.13;;;;;;;;;;5093896;28;20918;-67
2022/06/09 03:34:36;;;;;;;6.10;4.57;;;;;;;;;;5093854;28;20408;-67
2022/06/09 03:37:03;;;;;;;4.53;4.17;;;;;;;;;;5093735;28;20551;-68
2022/06/09 03:39:28;;;;;;;3.90;3.60;;;;;;;;;;5093809;28;20887;-68
2022/06/09 03:41:54;;;;;;;4.53;3.67;;;;;;;;;;5094005;28;20428;-68
2022/06/09 03:44:20;;;;;;;4.13;3.93;;;;;;;;;;5093636;28;20770;-67
2022/06/09 03:46:46;;;;;;;3.77;3.30;;;;;;;;;;5093743;28;20473;-66
2022/06/09 03:49:12;;;;;;;3.93;3.83;;;;;;;;;;5093648;28;20396;-67
2022/06/09 03:51:38;;;;;;;4.40;4.10;;;;;;;;;;5093656;28;20424;-66
2022/06/09 03:54:04;;;;;;;4.10;4.00;;;;;;;;;;5093611;28;20430;-66
2022/06/09 03:56:30;;;;;;;4.87;4.67;;;;;;;;;;5093477;28;20471;-66
2022/06/09 03:58:56;;;;;;;5.00;4.70;;;;;;;;;;5093590;28;20396;-66
2022/06/09 04:01:22;;;;;;;5.53;4.97;;;;;;;;;;5093590;28;20418;-67
2022/06/09 04:03:49;;;;;;;10.13;4.93;;;;;;;;;;5093447;28;20397;-66
2022/06/09 04:06:16;;;;;;;4.70;4.40;;;;;;;;;;5093427;28;20466;-67
2022/06/09 04:08:42;;;;;;;5.60;4.87;;;;;;;;;;5093351;28;20457;-67
2022/06/09 04:11:09;;;;;;;6.13;5.47;;;;;;;;;;5095813;28;20421;-67
2022/06/09 04:13:35;;;;;;;5.60;5.20;;;;;;;;;;5097490;28;20862;-67
2022/06/09 04:16:01;;;;;;;5.30;5.00;;;;;;;;;;5097472;28;21026;-67
2022/06/09 04:18:27;;;;;;;5.70;5.40;;;;;;;;;;5097446;28;20885;-67
2022/06/09 04:20:53;;;;;;;9.73;5.50;;;;;;;;;;5097350;28;20439;-67
2022/06/09 04:23:19;;;;;;;6.00;5.47;;;;;;;;;;5097379;28;20406;-67
2022/06/09 04:25:45;;;;;;;5.80;5.60;;;;;;;;;;5097609;28;20407;-67
2022/06/09 04:28:11;;;;;;;5.90;5.40;;;;;;;;;;5097348;28;20411;-66
2022/06/09 04:30:37;;;;;;;5.70;5.30;;;;;;;;;;5097148;28;20560;-67
2022/06/09 04:33:03;;;;;;;31.77;25.70;;;;;;;;;;5097151;28;20409;-67
2022/06/09 04:35:29;;;;;;;6.37;6.07;;;;;;;;;;5097057;28;20916;-68
2022/06/09 04:38:01;;;;;;;7.13;6.57;;;;;;;;;;5097086;28;20420;-66
2022/06/09 04:40:29;;;;;;;6.87;6.30;;;;;;;;;;5097104;28;20871;-66
2022/06/09 04:42:55;;;;;;;5.73;5.37;;;;;;;;;;5096984;28;20764;-67
2022/06/09 04:45:21;;;;;;;6.43;6.00;;;;;;;;;;5096994;28;20415;-67
2022/06/09 04:47:47;;;;;;;6.33;5.93;;;;;;;;;;5097156;28;20403;-67
2022/06/09 04:50:16;;;;;;;6.87;6.13;;;;;;;;;;5096771;28;20946;-67
2022/06/09 04:52:42;;;;;;;7.53;6.83;;;;;;;;;;5096804;28;20921;-67
2022/06/09 04:55:08;;;;;;;7.43;6.93;;;;;;;;;;5096766;28;20424;-67
2022/06/09 04:57:34;;;;;;;7.97;7.30;;;;;;;;;;5096637;28;20535;-67
2022/06/09 05:00:00;;;;;;;16.43;14.73;;;;;;;;;;5096618;28;20767;-66
2022/06/09 05:02:27;;;;;;;5.70;5.40;;;;;;;;;;5096645;28;20404;-66
2022/06/09 05:04:53;;;;;;;6.83;6.30;;;;;;;;;;5096544;28;20743;-67
2022/06/09 05:07:19;;;;;;;6.97;6.37;;;;;;;;;;5096793;28;20418;-67
2022/06/09 05:09:45;;;;;;;5.87;5.47;;;;;;;;;;5096513;28;20407;-67
2022/06/09 05:12:11;;;;;;;7.40;6.50;;;;;;;;;;5095163;28;20420;-68
2022/06/09 05:14:37;;;;;;;5.90;5.70;;;;;;;;;;5096388;28;20412;-67
2022/06/09 05:17:03;;;;;;;6.57;6.27;;;;;;;;;;5096304;28;20521;-66
2022/06/09 05:19:29;;;;;;;6.30;5.90;;;;;;;;;;5096270;28;20392;-66
2022/06/09 05:21:55;;;;;;;6.87;6.50;;;;;;;;;;5095162;28;20456;-68
2022/06/09 05:24:21;;;;;;;6.50;6.10;;;;;;;;;;5096205;28;20403;-67
2022/06/09 05:26:47;;;;;;;7.23;6.73;;;;;;;;;;5096245;28;20400;-67
2022/06/09 05:29:13;;;;;;;5.77;5.37;;;;;;;;;;5096126;28;20462;-68
2022/06/09 05:31:39;;;;;;;6.30;6.00;;;;;;;;;;5096030;28;20426;-67
2022/06/09 05:34:06;;;;;;;6.80;6.30;;;;;;;;;;5095948;28;20476;-67
2022/06/09 05:36:32;;;;;;;6.43;5.83;;;;;;;;;;5094674;28;20848;-67
2022/06/09 05:47:12;;;;;;;12.00;5.60;;;;;;;;;;5096041;28;20400;-67
2022/06/09 05:49:38;;;;;;;6.10;5.90;;;;;;;;;;5095708;28;20401;-67
2022/06/09 05:52:04;;;;;;;5.43;5.00;;;;;;;;;;5095645;28;20450;-67
2022/06/09 05:54:30;;;;;;;5.53;5.13;;;;;;;;;;5095604;28;20876;-67
2022/06/09 05:56:57;;;;;;;4.60;4.50;;;;;;;;;;5095503;28;20471;-67
2022/06/09 05:59:23;;;;;;;4.90;4.60;;;;;;;;;;5094176;28;20917;-67
2022/06/09 06:01:49;;;;;;;5.00;4.70;;;;;;;;;;5095542;28;20417;-67
2022/06/09 06:04:15;;;;;;;4.70;4.40;;;;;;;;;;5095438;28;20411;-66
2022/06/09 06:06:42;;;;;;;3.87;3.60;;;;;;;;;;5095331;28;20404;-67
2022/06/09 06:09:09;;;;;;;4.50;4.20;;;;;;;;;;5095349;28;20527;-67
2022/06/09 06:11:37;;;;;;;5.60;5.10;;;;;;;;;;5095268;28;20463;-67
2022/06/09 06:14:03;;;;;;;5.10;4.70;;;;;;;;;;5095075;28;20405;-67
2022/06/09 06:16:29;;;;;;;5.90;4.33;;;;;;;;;;5095010;28;20475;-67
2022/06/09 06:18:55;;;;;;;4.13;3.70;;;;;;;;;;5094938;28;20401;-66
2022/06/09 06:21:21;;;;;;;4.30;3.90;;;;;;;;;;5095064;28;20404;-67
2022/06/09 06:23:48;;;;;;;8.80;4.80;;;;;;;;;;5095091;28;20401;-65
2022/06/09 06:26:14;;;;;;;5.63;4.97;;;;;;;;;;5094925;28;20462;-66
2022/06/09 06:28:40;;;;;;;5.37;4.97;;;;;;;;;;5094834;28;20511;-66
2022/06/09 06:31:06;;;;;;;4.83;4.43;;;;;;;;;;5094911;28;20420;-66
2022/06/09 06:33:32;;;;;;;4.10;3.83;;;;;;;;;;5094907;28;20442;-67
2022/06/09 06:35:58;;;;;;;4.70;4.20;;;;;;;;;;5094598;28;20478;-67
2022/06/09 06:38:24;;;;;;;3.30;3.00;;;;;;;;;;5094701;28;20395;-66
2022/06/09 06:40:51;;;;;;;2.20;1.90;;;;;;;;;;5094639;28;20444;-66
2022/06/09 06:43:17;;;;;;;1.87;1.77;;;;;;;;;;5094892;28;20460;-66
2022/06/09 06:45:44;;;;;;;6.70;1.53;;;;;;;;;;5093385;28;20428;-67
2022/06/09 06:48:10;;;;;;;6.20;1.63;;;;;;;;;;5094681;28;20892;-66
2022/06/09 06:50:36;;;;;;;3.63;1.60;;;;;;;;;;5094559;28;20394;-66
2022/06/09 06:53:02;;;;;;;5.97;2.03;;;;;;;;;;5094471;28;20406;-65
2022/06/09 06:55:29;;;;;;;1.90;1.33;;;;;;;;;;5094602;28;20415;-67
2022/06/09 06:57:55;;;;;;;1.50;1.40;;;;;;;;;;5094414;28;20505;-67
2022/06/09 07:00:22;;;;;;;1.80;1.40;;;;;;;;;;5094352;28;20927;-67
2022/06/09 07:02:48;;;;;;;1.00;1.00;;;;;;;;;;5094241;28;20908;-68
2022/06/09 07:05:15;;;;;;;2.00;1.80;;;;;;;;;;5094335;28;20401;-67
2022/06/09 07:07:41;;;;;;;3.40;1.50;;;;;;;;;;5092970;28;20553;-67
2022/06/09 07:10:07;;;;;;;1.40;1.30;;;;;;;;;;5094147;28;20777;-67
2022/06/09 07:12:33;;;;;;;1.50;1.20;;;;;;;;;;5094118;28;20489;-67
2022/06/09 07:14:59;;;;;;;1.20;1.20;;;;;;;;;;5094443;28;20443;-67
2022/06/09 07:17:26;;;;;;;1.20;1.20;;;;;;;;;;5094019;28;20546;-67
2022/06/09 07:19:52;;;;;;;1.90;1.77;;;;;;;;;;5093896;28;20486;-67
2022/06/09 07:22:19;;;;;;;1.83;1.70;;;;;;;;;;5093886;28;20404;-67
2022/06/09 07:24:45;;;;;;;2.30;1.67;;;;;;;;;;5094090;28;20397;-67
2022/06/09 07:27:12;;;;;;;5.60;2.17;;;;;;;;;;5093910;28;20396;-67
2022/06/09 07:29:38;;;;;;;5.07;2.70;;;;;;;;;;5093702;28;20455;-68
2022/06/09 07:32:04;;;;;;;3.50;2.50;;;;;;;;;;5093726;28;20905;-66
2022/06/09 07:34:30;;;;;;;2.10;2.00;;;;;;;;;;5093757;28;20400;-66
2022/06/09 07:36:56;;;;;;;4.83;1.73;;;;;;;;;;5093644;28;20950;-67
2022/06/09 07:39:24;;;;;;;1.40;1.40;;;;;;;;;;5093757;28;20392;-67
2022/06/09 07:41:50;;;;;;;5.20;1.73;;;;;;;;;;5093806;28;20411;-66
2022/06/09 07:44:16;;;;;;;2.33;2.23;;;;;;;;;;5093588;28;20395;-65
2022/06/09 07:46:42;;;;;;;4.13;2.47;;;;;;;;;;5093191;28;20896;-66
2022/06/09 07:49:08;;;;;;;2.40;2.30;;;;;;;;;;5093589;28;20918;-67
2022/06/09 07:51:35;;;;;;;2.67;2.53;;;;;;;;;;5093940;28;20503;-65
2022/06/09 07:54:01;;;;;;;2.60;2.50;;;;;;;;;;5093915;28;20407;-66
2022/06/09 07:56:27;;;;;;;3.03;2.83;;;;;;;;;;5093493;28;20451;-66
2022/06/09 07:58:54;;;;;;;4.53;2.17;;;;;;;;;;5093564;28;20467;-68
2022/06/09 08:01:22;;;;;;;3.10;3.00;;;;;;;;;;5093525;28;20429;-68
2022/06/09 08:03:48;;;;;;;2.20;2.10;;;;;;;;;;5093526;28;20396;-65
2022/06/09 08:06:14;;;;;;;2.93;1.70;;;;;;;;;;5093460;28;20385;-65
2022/06/09 08:08:40;;;;;;;1.90;1.80;;;;;;;;;;5093455;28;20430;-66
2022/06/09 08:11:07;;;;;;;4.73;1.43;;;;;;;;;;5093410;28;20416;-66
2022/06/09 08:13:34;;;;;;;1.33;1.33;;;;;;;;;;5093386;28;20880;-67
2022/06/09 08:16:01;;;;;;;3.40;1.70;;;;;;;;;;5093318;28;20509;-66
2022/06/09 08:18:28;;;;;;;2.60;1.70;;;;;;;;;;5093213;28;20399;-67
2022/06/09 08:20:55;;;;;;;2.23;1.20;;;;;;;;;;5093483;28;20410;-66
2022/06/09 08:23:23;;;;;;;2.10;1.40;;;;;;;;;;5093289;28;20406;-67
2022/06/09 08:25:50;;;;;;;2.47;1.50;;;;;;;;;;5093214;28;20396;-66
2022/06/09 08:28:18;;;;;;;2.13;1.37;;;;;;;;;;5093217;28;20404;-66
2022/06/09 08:30:44;;;;;;;3.33;1.27;;;;;;;;;;5093162;28;20458;-66
2022/06/09 08:33:10;;;;;;;2.03;1.23;;;;;;;;;;5091853;28;20436;-67
2022/06/09 08:35:36;;;;;;;2.17;1.30;;;;;;;;;;5091732;28;20797;-67
2022/06/09 08:38:03;;;;;;;1.87;1.40;;;;;;;;;;5093009;28;20482;-67
2022/06/09 08:40:38;;;;;;;1.43;1.00;;;;;;;;;;5093034;28;20428;-67
2022/06/09 08:43:13;;;;;;;5.23;1.70;;;;;;;;;;5092985;28;20858;-68
2022/06/09 08:45:42;;;;;;;1.47;1.37;;;;;;;;;;5093079;28;20798;-68
2022/06/09 08:48:28;;;;;;;1.70;1.20;;;;;;;;;;5092938;28;20474;-68
2022/06/09 08:51:07;;;;;;;2.80;1.37;;;;;;;;;;5092771;28;20814;-67
2022/06/09 08:53:37;;;;;;;1.30;1.23;;;;;;;;;;5093001;28;20500;-67
2022/06/09 08:56:26;;;;;;;3.90;1.53;;;;;;;;;;5093220;28;20496;-67
2022/06/09 08:58:57;;;;;;;2.80;1.23;;;;;;;;;;5096619;28;20396;-66
2022/06/09 09:01:28;;;;;;;2.30;1.17;;;;;;;;;;5096490;28;20403;-66
2022/06/09 09:04:05;;;;;;;4.27;1.57;;;;;;;;;;5096462;28;20912;-65
2022/06/09 09:06:37;;;;;;;4.60;1.47;;;;;;;;;;5096533;28;20390;-66
2022/06/09 09:09:27;;;;;;;1.30;1.23;;;;;;;;;;5096500;28;20444;-67
2022/06/09 09:12:15;;;;;;;1.90;1.20;;;;;;;;;;5096463;28;20412;-67
2022/06/09 09:14:41;;;;;;;5.00;1.50;;;;;;;;;;5096342;28;20389;-66
2022/06/09 09:17:23;;;;;;;2.80;1.50;;;;;;;;;;5096162;28;20964;-67
2022/06/09 09:19:59;;;;;;;1.73;1.20;;;;;;;;;;5096201;28;20819;-66
2022/06/09 09:22:25;;;;;;;4.77;1.60;;;;;;;;;;5096170;28;20407;-66
2022/06/09 09:24:51;;;;;;;3.03;1.10;;;;;;;;;;5096423;28;20401;-67
2022/06/09 09:27:20;;;;;;;2.40;1.20;;;;;;;;;;5096165;28;20435;-67
2022/06/09 09:29:55;;;;;;;3.03;1.50;;;;;;;;;;5095858;28;20465;-66
2022/06/09 09:32:23;;;;;;;3.63;1.57;;;;;;;;;;5096002;28;20407;-66
2022/06/09 09:34:50;;;;;;;2.30;1.30;;;;;;;;;;5095964;28;20399;-67
2022/06/09 09:37:22;;;;;;;1.30;1.13;;;;;;;;;;5095830;28;20453;-67
2022/06/09 09:39:50;;;;;;;2.13;1.20;;;;;;;;;;5096108;28;20403;-67
2022/06/09 09:42:18;;;;;;;2.20;1.27;;;;;;;;;;5095778;28;20395;-66
2022/06/09 09:45:06;;;;;;;1.77;1.20;;;;;;;;;;5095835;28;20403;-66
2022/06/09 09:47:33;;;;;;;3.40;1.33;;;;;;;;;;5095598;28;20394;-67
2022/06/09 09:50:02;;;;;;;2.77;1.63;;;;;;;;;;5095740;28;20452;-67
2022/06/09 09:52:32;;;;;;;1.40;1.30;;;;;;;;;;5095705;28;20406;-67
2022/06/09 09:54:58;;;;;;;2.20;1.50;;;;;;;;;;5095634;28;20923;-66
2022/06/09 09:57:25;;;;;;;2.73;1.40;;;;;;;;;;5095503;28;20580;-65
2022/06/09 09:59:55;;;;;;;3.30;1.50;;;;;;;;;;5095404;28;20852;-67
2022/06/09 10:08:36;;;;;;;4.53;1.70;;;;;;;;;;5060712;28;20419;-67
2022/06/09 10:11:53;;;;;;;2.50;1.77;;;;;;;;;;5095330;28;20463;-67
2022/06/09 10:13:50;;;;;;;3.80;1.70;;;;;;;;;;5094951;28;20408;-67
2022/06/09 10:16:17;;;;;;;3.23;1.83;;;;;;;;;;5095288;28;20492;-66
2022/06/09 10:18:44;;;;;;;3.83;1.90;;;;;;;;;;5094975;28;20422;-66
2022/06/09 10:21:11;;;;;;;3.40;1.87;;;;;;;;;;5095157;28;20890;-68
2022/06/09 10:23:49;;;;;;;1.90;1.40;;;;;;;;;;5095033;28;20399;-68
2022/06/09 10:26:45;;;;;;;5.77;1.63;;;;;;;;;;5094997;28;20408;-67
2022/06/09 10:29:26;;;;;;;1.07;1.03;;;;;;;;;;5077683;28;21038;-67
2022/06/09 10:31:52;;;;;;;5.93;1.20;;;;;;;;;;5094892;28;20411;-67
2022/06/09 10:34:23;;;;;;;2.47;1.07;;;;;;;;;;5094826;28;20411;-67
2022/06/09 10:36:52;;;;;;;1.53;1.43;;;;;;;;;;5094786;28;20473;-67
2022/06/09 10:39:37;;;;;;;2.87;1.37;;;;;;;;;;5094829;28;20408;-67
2022/06/09 10:42:15;;;;;;;2.20;1.23;;;;;;;;;;5094922;28;20512;-67
2022/06/09 10:44:50;;;;;;;1.20;1.03;;;;;;;;;;5094686;28;20406;-68
2022/06/09 10:55:59;;;;;;;1.10;0.70;;;;;;;;;;5094483;28;20812;-68
2022/06/09 10:58:34;;;;;;;2.93;1.50;;;;;;;;;;5094401;28;20412;-67
2022/06/09 11:01:00;;;;;;;2.73;1.07;;;;;;;;;;5094395;28;20397;-67
2022/06/09 11:03:46;;;;;;;1.47;1.13;;;;;;;;;;5094340;28;20403;-67
2022/06/09 11:06:23;;;;;;;2.87;1.27;;;;;;;;;;5094292;28;20395;-68
2022/06/09 11:09:07;;;;;;;5.03;1.30;;;;;;;;;;5094196;28;20773;-68
2022/06/09 11:11:52;;;;;;;1.40;1.30;;;;;;;;;;5094092;28;20450;-67
2022/06/09 11:14:24;;;;;;;3.17;1.30;;;;;;;;;;5094192;28;20484;-68
2022/06/09 11:17:13;;;;;;;3.37;1.50;;;;;;;;;;5093982;28;20470;-68
2022/06/09 11:19:48;;;;;;;2.63;1.23;;;;;;;;;;5055721;28;20423;-68
2022/06/09 11:22:25;;;;;;;1.10;1.10;;;;;;;;;;5094308;28;20415;-66
2022/06/09 11:25:01;;;;;;;7.03;1.50;;;;;;;;;;5093965;28;20382;-67
2022/06/09 11:27:38;;;;;;;1.80;1.70;;;;;;;;;;5093900;28;20866;-68
2022/06/09 11:30:16;;;;;;;4.30;1.43;;;;;;;;;;5093658;28;20552;-68
2022/06/09 11:32:54;;;;;;;3.80;1.10;;;;;;;;;;5093874;28;20405;-68
2022/06/09 11:35:41;;;;;;;2.40;1.10;;;;;;;;;;5093745;28;20960;-68
2022/06/09 11:38:07;;;;;;;2.30;1.67;;;;;;;;;;5093764;28;20440;-68
2022/06/09 11:40:39;;;;;;;4.90;1.80;;;;;;;;;;5093760;28;20398;-67
2022/06/09 11:43:25;;;;;;;1.83;1.30;;;;;;;;;;5093732;28;20438;-66
2022/06/09 11:45:55;;;;;;;2.30;1.50;;;;;;;;;;5093579;28;20473;-67
2022/06/09 11:48:29;;;;;;;1.20;1.10;;;;;;;;;;5093685;28;20468;-67
2022/06/09 11:50:55;;;;;;;2.10;1.50;;;;;;;;;;5093656;28;20897;-67
2022/06/09 11:53:30;;;;;;;1.30;1.20;;;;;;;;;;5093665;28;20487;-67
2022/06/09 11:56:15;;;;;;;4.40;1.47;;;;;;;;;;5092248;28;20468;-66
2022/06/09 11:58:42;;;;;;;3.93;1.73;;;;;;;;;;5093591;28;20395;-67
2022/06/09 12:01:27;;;;;;;2.53;1.60;;;;;;;;;;5093620;28;20394;-68
2022/06/09 12:03:56;;;;;;;1.13;1.13;;;;;;;;;;5093551;28;20406;-66
2022/06/09 12:06:27;;;;;;;4.13;1.40;;;;;;;;;;5093584;28;20397;-66
2022/06/09 12:09:00;;;;;;;6.23;1.37;;;;;;;;;;5093746;28;20871;-66
2022/06/09 12:11:46;;;;;;;4.17;1.80;;;;;;;;;;5093436;28;20395;-68
2022/06/09 12:14:21;;;;;;;3.33;1.43;;;;;;;;;;5093363;28;20430;-65
2022/06/09 12:17:07;;;;;;;1.97;1.27;;;;;;;;;;5093537;28;20475;-67
2022/06/09 12:19:53;;;;;;;2.50;1.30;;;;;;;;;;5093402;28;20407;-67
2022/06/09 12:22:38;;;;;;;1.60;1.50;;;;;;;;;;5093263;28;20402;-66
2022/06/09 12:25:23;;;;;;;3.33;1.13;;;;;;;;;;5093339;28;20399;-67
2022/06/09 12:27:50;;;;;;;1.87;1.47;;;;;;;;;;5093506;28;20408;-67
2022/06/09 12:30:37;;;;;;;2.13;1.33;;;;;;;;;;5093106;28;20449;-66
2022/06/09 12:33:12;;;;;;;1.20;1.10;;;;;;;;;;5097067;28;20394;-66
2022/06/09 12:35:46;;;;;;;2.43;1.43;;;;;;;;;;5097360;28;20514;-66
2022/06/09 12:38:18;;;;;;;5.27;1.40;;;;;;;;;;5097126;28;20439;-65
2022/06/09 12:40:47;;;;;;;1.40;1.30;;;;;;;;;;5097084;28;20829;-66
2022/06/09 12:43:21;;;;;;;2.43;1.30;;;;;;;;;;5097020;28;20905;-66
2022/06/09 12:45:58;;;;;;;2.00;1.43;;;;;;;;;;5097028;28;20391;-66
2022/06/09 12:48:28;;;;;;;3.57;1.53;;;;;;;;;;5096995;28;20407;-66
2022/06/09 12:50:55;;;;;;;7.80;2.00;;;;;;;;;;5096855;28;20481;-66
2022/06/09 12:53:30;;;;;;;1.73;1.20;;;;;;;;;;5097099;28;20753;-66
2022/06/09 12:55:59;;;;;;;3.80;1.40;;;;;;;;;;5096699;28;20454;-66
2022/06/09 12:58:29;;;;;;;4.90;1.40;;;;;;;;;;5096786;28;20849;-67
2022/06/09 13:00:56;;;;;;;7.13;1.80;;;;;;;;;;5096940;28;20400;-67
2022/06/09 13:03:25;;;;;;;1.70;1.00;;;;;;;;;;5096478;28;20462;-66
2022/06/09 13:05:52;;;;;;;1.57;1.10;;;;;;;;;;5096558;28;20451;-66
2022/06/09 13:08:21;;;;;;;3.33;1.33;;;;;;;;;;5096513;28;20412;-67
2022/06/09 13:10:54;;;;;;;5.77;2.17;;;;;;;;;;5096605;28;20420;-66
2022/06/09 13:13:25;;;;;;;3.63;1.70;;;;;;;;;;5096519;28;20495;-67
2022/06/09 13:16:00;;;;;;;4.20;1.40;;;;;;;;;;5096369;28;20398;-67
2022/06/09 13:18:38;;;;;;;2.87;1.30;;;;;;;;;;5096673;28;20433;-65
2022/06/09 13:21:07;;;;;;;4.17;1.50;;;;;;;;;;5096321;28;20405;-67
2022/06/09 13:23:33;;;;;;;2.00;1.43;;;;;;;;;;5096207;28;20403;-67
2022/06/09 13:25:59;;;;;;;2.80;1.63;;;;;;;;;;5096316;28;20414;-66
2022/06/09 13:28:31;;;;;;;3.03;1.57;;;;;;;;;;5096141;28;20450;-66
2022/06/09 13:30:57;;;;;;;3.13;1.73;;;;;;;;;;5095763;28;20467;-67
2022/06/09 13:33:42;;;;;;;1.40;1.30;;;;;;;;;;5096257;28;20433;-67
2022/06/09 13:36:20;;;;;;;2.30;1.50;;;;;;;;;;5095946;28;20458;-67
2022/06/09 13:38:46;;;;;;;1.47;1.37;;;;;;;;;;5096183;28;20476;-67
2022/06/09 13:41:18;;;;;;;5.47;1.47;;;;;;;;;;5095893;28;20393;-66
2022/06/09 13:43:46;;;;;;;1.60;1.30;;;;;;;;;;5095021;28;20921;-67
2022/06/09 13:46:20;;;;;;;3.57;1.63;;;;;;;;;;5095795;28;20392;-67
2022/06/09 13:49:00;;;;;;;4.07;1.50;;;;;;;;;;5095815;28;20399;-67
2022/06/09 13:51:58;;;;;;;2.50;1.57;;;;;;;;;;5095723;28;20450;-67
2022/06/09 13:54:29;;;;;;;1.67;1.30;;;;;;;;;;5051125;28;20468;-66
2022/06/09 13:56:55;;;;;;;1.60;1.27;;;;;;;;;;5095673;28;20800;-67
2022/06/09 13:59:21;;;;;;;11.70;2.10;;;;;;;;;;5095630;28;20934;-67
2022/06/09 14:01:49;;;;;;;6.63;1.93;;;;;;;;;;5095537;28;20416;-68
2022/06/09 14:04:18;;;;;;;4.20;1.57;;;;;;;;;;5095644;28;20410;-67
2022/06/09 14:06:44;;;;;;;2.80;1.17;;;;;;;;;;5095682;28;20877;-67
2022/06/09 14:09:14;;;;;;;2.13;1.70;;;;;;;;;;5095450;28;20416;-68
2022/06/09 14:11:40;;;;;;;5.50;1.40;;;;;;;;;;5095290;28;20782;-67
2022/06/09 14:14:06;;;;;;;3.60;1.60;;;;;;;;;;5095319;28;20416;-66
2022/06/09 14:16:36;;;;;;;3.37;1.30;;;;;;;;;;5095085;28;20887;-66
2022/06/09 14:19:03;;;;;;;1.70;1.27;;;;;;;;;;5095359;28;20462;-67
2022/06/09 14:21:30;;;;;;;3.33;1.20;;;;;;;;;;5095112;28;20403;-67
2022/06/09 14:23:58;;;;;;;3.63;1.30;;;;;;;;;;5095076;28;20398;-67
2022/06/09 14:26:29;;;;;;;1.73;1.07;;;;;;;;;;5095017;28;20895;-67
2022/06/09 14:28:58;;;;;;;4.57;1.60;;;;;;;;;;5095064;28;20395;-68
2022/06/09 14:31:24;;;;;;;4.20;1.43;;;;;;;;;;5094845;28;20796;-66
2022/06/09 14:33:50;;;;;;;1.27;1.10;;;;;;;;;;5095105;28;20406;-67
2022/06/09 14:36:17;;;;;;;1.23;1.13;;;;;;;;;;5094831;28;20467;-66
2022/06/09 14:38:43;;;;;;;3.20;1.10;;;;;;;;;;5094793;28;20887;-66
2022/06/09 14:41:12;;;;;;;1.20;1.10;;;;;;;;;;5094800;28;20891;-66
2022/06/09 14:43:38;;;;;;;3.60;1.10;;;;;;;;;;5094922;28;20785;-68
2022/06/09 14:46:04;;;;;;;2.23;1.37;;;;;;;;;;5094661;28;20897;-67
2022/06/09 14:48:30;;;;;;;3.23;1.20;;;;;;;;;;5094602;28;20483;-66
2022/06/09 14:50:56;;;;;;;2.07;1.50;;;;;;;;;;5094552;28;20390;-66
2022/06/09 14:53:24;;;;;;;3.57;1.57;;;;;;;;;;5094546;28;20940;-66
2022/06/09 14:55:50;;;;;;;2.27;1.40;;;;;;;;;;5094607;28;20462;-67
2022/06/09 14:58:18;;;;;;;2.33;1.70;;;;;;;;;;5094449;28;20885;-66
2022/06/09 15:00:45;;;;;;;3.47;1.93;;;;;;;;;;5094423;28;20764;-66
2022/06/09 15:03:11;;;;;;;7.20;1.80;;;;;;;;;;5094258;28;20436;-68
2022/06/09 15:05:38;;;;;;;8.40;1.80;;;;;;;;;;5094201;28;20433;-68
2022/06/09 15:08:07;;;;;;;1.70;1.43;;;;;;;;;;5094375;28;20938;-66
2022/06/09 15:10:34;;;;;;;2.67;1.67;;;;;;;;;;5094311;28;20481;-65
2022/06/09 15:13:00;;;;;;;5.17;1.77;;;;;;;;;;5092794;28;20426;-66
2022/06/09 15:15:27;;;;;;;6.03;1.57;;;;;;;;;;5094099;28;20462;-66
2022/06/09 15:17:54;;;;;;;4.97;1.80;;;;;;;;;;5093870;28;20470;-65
2022/06/09 15:20:28;;;;;;;3.90;1.63;;;;;;;;;;5093974;28;20409;-65